createdAt,value
2019-03-27T00:01:10.969Z,10.78
2019-03-27T00:03:43.458Z,13.62
2019-03-27T00:06:15.920Z,12.47
2019-03-27T00:08:48.337Z,12.43
2019-03-27T00:11:20.602Z,13.35
2019-03-27T00:13:52.496Z,13.38
2019-03-27T00:16:24.801Z,14.78
2019-03-27T00:18:57.105Z,11.07
2019-03-27T00:21:29.146Z,13.18
2019-03-27T00:24:01.233Z,15.20
2019-03-27T00:26:33.349Z,11.80
2019-03-27T00:29:05.586Z,13.55
2019-03-27T00:31:37.566Z,12.37
2019-03-27T00:34:09.485Z,11.78
2019-03-27T00:36:41.581Z,13.95
2019-03-27T00:39:13.730Z,10.80
2019-03-27T00:41:46.026Z,12.40
2019-03-27T00:44:18.121Z,11.40
2019-03-27T00:46:50.411Z,13.35
2019-03-27T00:49:22.562Z,11.67
2019-03-27T00:51:54.602Z,12.43
2019-03-27T00:54:26.871Z,13.90
2019-03-27T00:56:59.163Z,12.73
2019-03-27T00:59:31.324Z,13.03
2019-03-27T01:02:03.351Z,15.45
2019-03-27T01:04:35.542Z,15.72
2019-03-27T01:07:07.827Z,12.80
2019-03-27T01:09:40.362Z,15.73
2019-03-27T01:12:12.432Z,16.17
2019-03-27T01:14:44.879Z,12.80
2019-03-27T01:17:16.948Z,15.20
2019-03-27T01:19:49.005Z,14.03
2019-03-27T01:22:21.435Z,16.05
2019-03-27T01:24:53.893Z,15.98
2019-03-27T01:27:25.966Z,11.50
2019-03-27T01:29:58.204Z,13.13
2019-03-27T01:32:30.408Z,14.98
2019-03-27T01:35:02.732Z,15.10
2019-03-27T01:37:35.106Z,12.63
2019-03-27T01:40:10.180Z,14.63
2019-03-27T01:42:42.240Z,17.48
2019-03-27T01:45:14.706Z,16.17
2019-03-27T01:47:46.911Z,17.17
2019-03-27T01:50:19.096Z,15.00
2019-03-27T01:52:51.442Z,15.45
2019-03-27T01:55:23.594Z,20.30
2019-03-27T01:57:55.950Z,16.37
2019-03-27T02:00:28.259Z,19.53
2019-03-27T02:03:00.514Z,17.50
2019-03-27T02:05:32.500Z,15.55
2019-03-27T02:08:04.586Z,19.55
2019-03-27T02:10:36.799Z,18.40
2019-03-27T02:13:10.474Z,19.35
2019-03-27T02:15:42.812Z,16.82
2019-03-27T02:18:15.336Z,18.57
2019-03-27T02:20:47.675Z,18.07
2019-03-27T02:23:19.758Z,14.73
2019-03-27T02:25:52.008Z,15.08
2019-03-27T02:28:23.978Z,16.82
2019-03-27T02:30:56.234Z,17.02
2019-03-27T02:33:28.556Z,17.00
2019-03-27T02:36:00.747Z,19.52
2019-03-27T02:38:33.116Z,19.53
2019-03-27T02:41:05.398Z,16.20
2019-03-27T02:43:37.720Z,21.27
2019-03-27T02:46:23.679Z,16.20
2019-03-27T02:48:44.047Z,18.75
2019-03-27T02:51:16.486Z,17.50
2019-03-27T02:53:48.966Z,17.85
2019-03-27T02:56:21.037Z,18.57
2019-03-27T02:58:52.984Z,20.82
2019-03-27T03:01:25.224Z,20.60
2019-03-27T03:03:57.424Z,18.60
2019-03-27T03:06:29.848Z,18.87
2019-03-27T03:09:02.134Z,19.63
2019-03-27T03:11:35.266Z,19.32
2019-03-27T03:14:07.374Z,21.55
2019-03-27T03:16:42.649Z,20.40
2019-03-27T03:19:13.596Z,20.90
2019-03-27T03:21:45.754Z,25.30
2019-03-27T03:24:17.966Z,21.85
2019-03-27T03:26:51.483Z,24.37
2019-03-27T03:29:24.197Z,22.17
2019-03-27T03:31:56.557Z,19.10
2019-03-27T03:34:28.962Z,16.07
2019-03-27T03:37:01.223Z,19.62
2019-03-27T03:39:33.577Z,18.90
2019-03-27T03:42:05.907Z,18.30
2019-03-27T03:44:38.082Z,20.75
2019-03-27T03:47:10.393Z,21.02
2019-03-27T03:49:42.854Z,13.48
2019-03-27T03:52:15.247Z,21.40
2019-03-27T03:54:47.823Z,22.17
2019-03-27T03:57:20.348Z,22.50
2019-03-27T03:59:53.953Z,25.85
2019-03-27T04:02:27.433Z,23.57
2019-03-27T04:04:59.992Z,26.35
2019-03-27T04:07:32.162Z,22.65
2019-03-27T04:10:04.282Z,24.43
2019-03-27T04:12:36.424Z,18.65
2019-03-27T04:17:40.682Z,18.17
2019-03-27T04:20:12.818Z,18.73
2019-03-27T04:22:44.794Z,20.82
2019-03-27T04:25:17.022Z,20.12
2019-03-27T04:27:49.363Z,23.77
2019-03-27T04:30:21.405Z,21.30
2019-03-27T04:32:53.608Z,20.27
2019-03-27T04:35:25.794Z,18.90
2019-03-27T04:37:57.956Z,21.30
2019-03-27T04:40:30.025Z,21.15
2019-03-27T04:43:02.152Z,24.92
2019-03-27T04:45:34.347Z,21.97
2019-03-27T04:48:06.605Z,22.20
2019-03-27T04:50:38.730Z,20.05
2019-03-27T04:53:10.802Z,22.75
2019-03-27T04:55:42.605Z,23.30
2019-03-27T04:58:15.008Z,22.25
2019-03-27T05:00:47.303Z,15.48
2019-03-27T05:03:19.608Z,19.70
2019-03-27T05:05:52.005Z,19.80
2019-03-27T05:08:24.296Z,18.03
2019-03-27T05:10:56.452Z,19.97
2019-03-27T05:16:00.287Z,20.32
2019-03-27T05:18:32.203Z,22.13
2019-03-27T05:21:05.607Z,20.08
2019-03-27T05:23:38.131Z,21.75
2019-03-27T05:26:10.452Z,22.13
2019-03-27T05:28:42.749Z,24.07
2019-03-27T05:31:14.820Z,28.45
2019-03-27T05:33:47.156Z,20.02
2019-03-27T05:36:19.331Z,24.93
2019-03-27T05:38:51.278Z,21.45
2019-03-27T05:41:23.414Z,28.15
2019-03-27T05:43:55.953Z,37.73
2019-03-27T05:46:27.919Z,27.87
2019-03-27T05:49:00.028Z,22.45
2019-03-27T05:51:32.133Z,19.73
2019-03-27T05:54:04.599Z,18.05
2019-03-27T05:56:37.057Z,16.73
2019-03-27T05:59:09.414Z,18.70
2019-03-27T06:01:41.687Z,16.05
2019-03-27T06:04:13.958Z,16.13
2019-03-27T06:06:46.270Z,18.82
2019-03-27T06:09:18.441Z,26.27
2019-03-27T06:11:50.775Z,17.83
2019-03-27T06:14:23.269Z,19.60
2019-03-27T06:16:56.580Z,29.30
2019-03-27T06:19:29.026Z,22.00
2019-03-27T06:22:01.401Z,13.13
2019-03-27T06:24:33.772Z,16.95
2019-03-27T06:27:06.066Z,16.10
2019-03-27T06:29:38.533Z,25.40
2019-03-27T06:32:10.798Z,23.40
2019-03-27T06:34:42.909Z,16.50
2019-03-27T06:37:15.202Z,17.50
2019-03-27T06:39:47.461Z,17.13
2019-03-27T06:42:20.153Z,14.93
2019-03-27T06:44:52.348Z,18.90
2019-03-27T06:47:25.721Z,25.77
2019-03-27T06:49:57.963Z,23.00
2019-03-27T06:52:30.013Z,16.50
2019-03-27T06:55:02.341Z,19.87
2019-03-27T06:57:34.640Z,22.32
2019-03-27T07:00:08.099Z,12.93
2019-03-27T07:02:40.286Z,14.13
2019-03-27T07:05:12.779Z,13.53
2019-03-27T07:07:45.241Z,13.68
2019-03-27T07:10:17.694Z,19.67
2019-03-27T07:12:49.698Z,14.80
2019-03-27T07:15:21.800Z,13.93
2019-03-27T07:17:54.004Z,13.95
2019-03-27T07:20:26.492Z,20.00
2019-03-27T07:22:58.842Z,18.65
2019-03-27T07:25:31.292Z,19.10
2019-03-27T07:28:03.383Z,13.10
2019-03-27T07:30:35.580Z,18.82
2019-03-27T07:33:07.795Z,15.80
2019-03-27T07:35:40.018Z,22.15
2019-03-27T07:38:12.104Z,22.32
2019-03-27T07:40:44.484Z,24.77
2019-03-27T07:43:16.849Z,16.67
2019-03-27T07:45:49.168Z,15.87
2019-03-27T07:48:21.714Z,16.32
2019-03-27T07:50:53.922Z,16.40
2019-03-27T07:53:26.255Z,17.20
2019-03-27T07:55:58.718Z,14.87
2019-03-27T07:58:31.197Z,10.65
2019-03-27T08:01:03.647Z,18.23
2019-03-27T08:03:35.832Z,13.83
2019-03-27T08:06:08.124Z,9.63
2019-03-27T08:08:40.483Z,20.37
2019-03-27T08:11:13.098Z,14.83
2019-03-27T08:13:45.216Z,26.40
2019-03-27T08:16:17.750Z,12.23
2019-03-27T08:18:50.064Z,17.35
2019-03-27T08:21:22.223Z,17.57
2019-03-27T08:23:54.493Z,19.05
2019-03-27T08:26:26.910Z,20.32
2019-03-27T08:28:59.191Z,15.60
2019-03-27T08:31:31.540Z,17.07
2019-03-27T08:34:03.684Z,22.25
2019-03-27T08:39:09.665Z,14.78
2019-03-27T08:41:42.127Z,16.45
2019-03-27T08:44:14.148Z,18.40
2019-03-27T08:46:46.382Z,11.35
2019-03-27T08:49:22.266Z,16.17
2019-03-27T08:51:52.663Z,11.60
2019-03-27T08:54:25.016Z,19.03
2019-03-27T08:56:57.242Z,18.70
2019-03-27T08:59:29.457Z,18.90
2019-03-27T09:02:01.482Z,15.00
2019-03-27T09:04:33.909Z,28.92
2019-03-27T09:07:06.074Z,19.00
2019-03-27T09:09:38.276Z,20.48
2019-03-27T09:12:10.276Z,13.85
2019-03-27T09:14:42.559Z,24.12
2019-03-27T09:17:14.603Z,24.67
2019-03-27T09:19:46.698Z,23.12
2019-03-27T09:22:18.941Z,16.77
2019-03-27T09:24:50.957Z,14.10
2019-03-27T09:27:23.133Z,18.50
2019-03-27T09:29:55.436Z,17.82
2019-03-27T09:32:27.862Z,13.37
2019-03-27T09:35:00.360Z,28.87
2019-03-27T09:37:32.714Z,17.82
2019-03-27T09:40:05.139Z,18.00
2019-03-27T09:42:37.305Z,24.53
2019-03-27T09:45:10.799Z,16.55
2019-03-27T09:47:43.066Z,15.58
2019-03-27T09:50:15.406Z,15.80
2019-03-27T09:52:47.718Z,10.33
2019-03-27T09:55:19.926Z,14.60
2019-03-27T09:57:52.266Z,19.17
2019-03-27T10:00:50.881Z,14.80
2019-03-27T10:03:23.209Z,15.72
2019-03-27T10:05:55.301Z,8.43
2019-03-27T10:08:27.223Z,15.45
2019-03-27T10:10:59.880Z,22.20
2019-03-27T10:13:32.315Z,13.30
2019-03-27T10:16:04.851Z,12.23
2019-03-27T10:18:37.154Z,11.53
2019-03-27T10:21:10.544Z,16.60
2019-03-27T10:23:42.976Z,18.60
2019-03-27T10:26:15.287Z,15.23
2019-03-27T10:28:48.389Z,12.93
2019-03-27T10:31:20.973Z,11.53
2019-03-27T10:33:53.380Z,24.27
2019-03-27T10:36:25.629Z,7.90
2019-03-27T10:38:57.913Z,13.15
2019-03-27T10:41:30.292Z,28.40
2019-03-27T10:44:02.733Z,18.20
2019-03-27T10:46:35.108Z,13.00
2019-03-27T10:49:07.468Z,11.15
2019-03-27T10:51:39.492Z,11.83
2019-03-27T10:54:11.600Z,12.23
2019-03-27T10:56:43.778Z,9.93
2019-03-27T10:59:15.874Z,12.95
2019-03-27T11:01:49.279Z,15.43
2019-03-27T11:04:21.404Z,12.65
2019-03-27T11:06:53.844Z,19.32
2019-03-27T11:09:26.059Z,13.43
2019-03-27T11:11:58.342Z,11.23
2019-03-27T11:14:37.732Z,18.27
2019-03-27T11:17:04.887Z,12.53
2019-03-27T11:19:37.567Z,16.97
2019-03-27T11:22:09.690Z,11.78
2019-03-27T11:24:42.305Z,9.57
2019-03-27T11:27:15.112Z,13.80
2019-03-27T11:29:47.192Z,13.18
2019-03-27T11:32:19.582Z,12.60
2019-03-27T11:34:51.987Z,14.90
2019-03-27T11:37:24.210Z,12.95
2019-03-27T11:39:56.404Z,15.17
2019-03-27T11:42:28.617Z,13.20
2019-03-27T11:45:00.921Z,10.75
2019-03-27T11:47:33.029Z,12.20
2019-03-27T11:50:05.678Z,11.78
2019-03-27T11:52:37.893Z,12.80
2019-03-27T11:55:10.264Z,16.50
2019-03-27T11:57:42.651Z,19.57
2019-03-27T12:00:14.909Z,19.07
2019-03-27T12:02:47.187Z,14.83
2019-03-27T12:05:19.777Z,16.85
2019-03-27T12:07:51.902Z,17.92
2019-03-27T12:10:24.200Z,19.85
2019-03-27T12:12:56.333Z,13.77
2019-03-27T12:15:41.288Z,16.80
2019-03-27T12:18:16.275Z,13.62
2019-03-27T12:20:59.075Z,11.57
2019-03-27T12:23:22.546Z,10.20
2019-03-27T12:25:55.459Z,11.37
2019-03-27T12:30:58.540Z,9.35
2019-03-27T12:33:30.778Z,9.20
2019-03-27T12:36:03.015Z,24.87
2019-03-27T12:38:35.438Z,106.43
2019-03-27T12:41:07.761Z,186.55
2019-03-27T12:43:39.809Z,14.80
2019-03-27T12:46:12.157Z,14.58
2019-03-27T12:48:44.304Z,11.55
2019-03-27T12:51:16.795Z,8.90
2019-03-27T12:53:49.254Z,45.30
2019-03-27T12:56:21.766Z,20.82
2019-03-27T12:58:53.702Z,14.40
2019-03-27T13:01:25.792Z,13.90
2019-03-27T13:03:57.848Z,11.33
2019-03-27T13:06:30.405Z,13.08
2019-03-27T13:09:03.052Z,9.63
2019-03-27T13:11:36.876Z,14.30
2019-03-27T13:14:09.192Z,15.28
2019-03-27T13:16:41.226Z,10.65
2019-03-27T13:19:13.631Z,11.33
2019-03-27T13:21:45.625Z,9.20
2019-03-27T13:24:17.880Z,11.75
2019-03-27T13:26:49.862Z,12.77
2019-03-27T13:29:22.360Z,25.52
2019-03-27T13:31:54.223Z,12.05
2019-03-27T13:34:26.350Z,14.90
2019-03-27T13:36:58.784Z,12.25
2019-03-27T13:39:30.804Z,12.25
2019-03-27T13:42:03.103Z,14.35
2019-03-27T13:44:37.303Z,28.63
2019-03-27T13:47:09.439Z,20.40
2019-03-27T13:49:41.712Z,12.73
2019-03-27T13:52:13.788Z,19.85
2019-03-27T13:54:46.240Z,37.38
2019-03-27T13:57:18.220Z,26.77
2019-03-27T13:59:50.461Z,28.23
2019-03-27T14:02:22.717Z,15.80
2019-03-27T14:04:55.000Z,18.97
2019-03-27T14:07:27.158Z,11.68
2019-03-27T14:09:59.507Z,12.03
2019-03-27T14:12:31.739Z,12.80
2019-03-27T14:15:04.289Z,19.63
2019-03-27T14:17:36.501Z,14.90
2019-03-27T14:20:09.412Z,14.07
2019-03-27T14:22:41.910Z,15.32
2019-03-27T14:25:15.689Z,16.75
2019-03-27T14:27:48.903Z,10.13
2019-03-27T14:30:58.474Z,12.53
2019-03-27T14:33:30.678Z,8.88
2019-03-27T14:36:02.944Z,10.23
2019-03-27T14:38:35.338Z,9.70
2019-03-27T14:41:08.028Z,20.70
2019-03-27T14:43:40.630Z,11.83
2019-03-27T14:46:12.752Z,8.68
2019-03-27T14:48:45.305Z,20.88
2019-03-27T14:51:17.566Z,14.63
2019-03-27T14:53:49.742Z,11.60
2019-03-27T14:56:21.755Z,10.30
2019-03-27T14:58:53.717Z,13.60
2019-03-27T15:01:25.901Z,37.90
2019-03-27T15:03:58.203Z,43.45
2019-03-27T15:06:30.461Z,13.33
2019-03-27T15:09:02.887Z,29.50
2019-03-27T15:11:36.507Z,60.60
2019-03-27T15:14:08.743Z,14.63
2019-03-27T15:16:40.979Z,13.53
2019-03-27T15:19:13.152Z,15.15
2019-03-27T15:21:45.512Z,10.43
2019-03-27T15:24:20.446Z,13.93
2019-03-27T15:26:51.592Z,14.68
2019-03-27T15:29:23.814Z,9.73
2019-03-27T15:31:56.266Z,18.17
2019-03-27T15:34:28.320Z,12.77
2019-03-27T15:37:00.576Z,14.00
2019-03-27T15:39:32.693Z,7.42
2019-03-27T15:42:09.174Z,10.20
2019-03-27T15:44:39.998Z,12.80
2019-03-27T15:47:13.607Z,9.93
2019-03-27T15:49:45.671Z,18.57
2019-03-27T15:52:17.752Z,14.47
2019-03-27T15:54:50.139Z,13.00
2019-03-27T15:57:22.417Z,13.58
2019-03-27T15:59:54.539Z,14.58
2019-03-27T16:02:26.651Z,17.27
2019-03-27T16:04:58.620Z,18.37
2019-03-27T16:07:31.475Z,24.00
2019-03-27T16:10:03.767Z,19.62
2019-03-27T16:12:36.679Z,25.73
2019-03-27T16:15:10.356Z,25.12
2019-03-27T16:17:42.801Z,27.62
2019-03-27T16:20:15.388Z,26.00
2019-03-27T16:22:50.850Z,39.33
2019-03-27T16:25:21.681Z,66.15
2019-03-27T16:27:53.833Z,126.70
2019-03-27T16:30:26.126Z,90.67
2019-03-27T16:32:58.295Z,80.63
2019-03-27T16:35:30.283Z,77.95
2019-03-27T16:38:02.448Z,55.35
2019-03-27T16:40:48.256Z,48.83
2019-03-27T16:43:21.355Z,48.60
2019-03-27T16:45:53.559Z,42.90
2019-03-27T16:48:25.874Z,63.63
2019-03-27T16:50:59.556Z,70.95
2019-03-27T16:53:31.957Z,60.17
2019-03-27T16:56:05.468Z,63.02
2019-03-27T16:58:37.839Z,53.20
2019-03-27T17:01:10.077Z,59.23
2019-03-27T17:03:42.796Z,68.50
2019-03-27T17:06:15.193Z,30.95
2019-03-27T17:08:47.539Z,40.33
2019-03-27T17:11:19.823Z,29.30
2019-03-27T17:13:51.823Z,29.97
2019-03-27T17:16:24.050Z,50.20
2019-03-27T17:18:56.195Z,114.20
2019-03-27T17:21:28.412Z,72.97
2019-03-27T17:24:00.634Z,39.63
2019-03-27T17:26:32.972Z,33.67
2019-03-27T17:29:05.251Z,28.40
2019-03-27T17:31:37.697Z,98.75
2019-03-27T17:34:09.989Z,219.82
2019-03-27T17:36:42.366Z,77.93
2019-03-27T17:39:14.822Z,50.30
2019-03-27T17:41:47.077Z,53.87
2019-03-27T17:44:19.377Z,56.15
2019-03-27T17:46:51.481Z,48.83
2019-03-27T17:49:23.829Z,56.28
2019-03-27T17:51:56.154Z,60.97
2019-03-27T17:54:28.611Z,83.20
2019-03-27T17:57:00.874Z,110.93
2019-03-27T17:59:33.323Z,98.13
2019-03-27T18:02:05.851Z,61.17
2019-03-27T18:04:37.924Z,64.95
2019-03-27T18:07:10.107Z,59.98
2019-03-27T18:09:42.480Z,241.68
2019-03-27T18:12:14.900Z,187.03
2019-03-27T18:14:47.198Z,78.25
2019-03-27T18:17:19.438Z,64.05
2019-03-27T18:19:51.833Z,55.48
2019-03-27T18:22:24.266Z,37.08
2019-03-27T18:24:56.813Z,46.10
2019-03-27T18:27:29.155Z,46.83
2019-03-27T18:30:01.556Z,49.50
2019-03-27T18:32:34.321Z,55.43
2019-03-27T18:35:07.387Z,49.90
2019-03-27T18:37:39.901Z,86.25
2019-03-27T18:40:12.361Z,131.30
2019-03-27T18:42:44.337Z,105.33
2019-03-27T18:45:16.699Z,119.47
2019-03-27T18:47:48.950Z,152.90
2019-03-27T18:50:21.157Z,120.80
2019-03-27T18:52:53.144Z,104.72
2019-03-27T18:55:27.053Z,98.45
2019-03-27T18:58:00.779Z,90.17
2019-03-27T19:00:33.599Z,56.13
2019-03-27T19:03:06.099Z,53.35
2019-03-27T19:05:38.493Z,45.50
2019-03-27T19:08:10.895Z,48.35
2019-03-27T19:10:43.284Z,71.57
2019-03-27T19:13:15.507Z,115.10
2019-03-27T19:15:48.963Z,84.13
2019-03-27T19:18:22.020Z,71.37
2019-03-27T19:20:54.553Z,146.90
2019-03-27T19:23:27.113Z,137.03
2019-03-27T19:25:59.437Z,111.85
2019-03-27T19:28:31.436Z,130.40
2019-03-27T19:31:03.937Z,146.93
2019-03-27T19:33:36.506Z,120.22
2019-03-27T19:36:10.345Z,217.43
2019-03-27T19:38:42.507Z,163.70
2019-03-27T19:41:15.124Z,119.55
2019-03-27T19:43:47.632Z,121.75
2019-03-27T19:46:20.170Z,182.93
2019-03-27T19:48:52.359Z,106.40
2019-03-27T19:51:24.590Z,109.80
2019-03-27T19:53:56.783Z,45.03
2019-03-27T19:56:28.884Z,56.30
2019-03-27T19:59:01.430Z,61.33
2019-03-27T20:01:33.628Z,41.75
2019-03-27T20:04:05.836Z,44.18
2019-03-27T20:06:38.264Z,39.85
2019-03-27T20:09:10.751Z,42.50
2019-03-27T20:11:43.983Z,31.15
2019-03-27T20:14:16.218Z,39.23
2019-03-27T20:16:48.452Z,63.98
2019-03-27T20:19:20.485Z,62.75
2019-03-27T20:24:24.814Z,54.73
2019-03-27T20:26:57.128Z,45.97
2019-03-27T20:29:29.170Z,35.20
2019-03-27T20:32:01.234Z,29.92
2019-03-27T20:34:33.664Z,29.50
2019-03-27T20:37:05.844Z,36.17
2019-03-27T20:39:37.919Z,30.40
2019-03-27T20:42:10.123Z,34.27
2019-03-27T20:44:42.791Z,32.47
2019-03-27T20:47:15.205Z,31.45
2019-03-27T20:49:47.543Z,30.65
2019-03-27T20:52:20.184Z,32.50
2019-03-27T20:54:55.184Z,29.57
2019-03-27T20:57:26.412Z,24.57
2019-03-27T20:59:58.851Z,27.13
2019-03-27T21:02:31.398Z,25.72
2019-03-27T21:05:03.881Z,28.35
2019-03-27T21:07:36.249Z,21.50
2019-03-27T21:10:09.555Z,29.97
2019-03-27T21:12:42.116Z,31.48
2019-03-27T21:15:14.578Z,29.63
2019-03-27T21:17:46.892Z,30.08
2019-03-27T21:20:19.140Z,35.87
2019-03-27T21:22:51.294Z,30.48
2019-03-27T21:25:23.465Z,32.98
2019-03-27T21:27:56.013Z,39.48
2019-03-27T21:30:28.373Z,38.73
2019-03-27T21:33:00.547Z,32.42
2019-03-27T21:35:32.626Z,27.25
2019-03-27T21:38:05.048Z,31.55
2019-03-27T21:40:37.148Z,33.00
2019-03-27T21:43:09.129Z,77.20
2019-03-27T21:45:41.420Z,33.08
2019-03-27T21:48:13.972Z,43.03
2019-03-27T21:50:46.212Z,41.18
2019-03-27T21:53:18.458Z,47.85
2019-03-27T21:55:50.402Z,76.60
2019-03-27T21:58:22.874Z,112.40
2019-03-27T22:00:55.538Z,65.62
2019-03-27T22:03:28.669Z,51.18
2019-03-27T22:06:01.043Z,46.42
2019-03-27T22:08:33.129Z,40.53
2019-03-27T22:11:05.234Z,33.73
2019-03-27T22:13:37.640Z,30.57
2019-03-27T22:16:09.988Z,71.95
2019-03-27T22:18:42.001Z,44.50
2019-03-27T22:21:14.005Z,48.10
2019-03-27T22:23:46.342Z,48.87
2019-03-27T22:26:18.819Z,42.77
2019-03-27T22:28:52.068Z,33.50
2019-03-27T22:31:24.317Z,35.50
2019-03-27T22:33:56.584Z,19.60
2019-03-27T22:36:29.135Z,29.87
2019-03-27T22:39:01.708Z,28.77
2019-03-27T22:41:35.619Z,24.15
2019-03-27T22:44:07.909Z,23.38
2019-03-27T22:46:40.127Z,28.98
2019-03-27T22:49:12.135Z,26.62
2019-03-27T22:51:44.404Z,33.30
2019-03-27T22:54:18.066Z,28.83
2019-03-27T22:56:50.252Z,31.90
2019-03-27T23:01:56.630Z,27.55
2019-03-27T23:04:29.756Z,21.82
2019-03-27T23:07:02.968Z,25.85
2019-03-27T23:12:07.642Z,33.23
2019-03-27T23:14:40.612Z,33.02
2019-03-27T23:17:13.848Z,35.13
2019-03-27T23:19:47.255Z,34.90
2019-03-27T23:22:20.383Z,31.23
2019-03-27T23:24:53.316Z,29.82
2019-03-27T23:27:26.436Z,27.90
2019-03-27T23:29:59.547Z,34.18
2019-03-27T23:32:32.646Z,31.82
2019-03-27T23:35:06.304Z,33.30
2019-03-27T23:37:39.590Z,32.95
2019-03-27T23:42:43.975Z,23.75
2019-03-27T23:45:17.531Z,28.05
2019-03-27T23:47:50.413Z,24.63
2019-03-27T23:50:23.585Z,29.23
2019-03-27T23:52:56.511Z,37.25
2019-03-27T23:55:30.026Z,37.55
2019-03-27T23:58:03.070Z,31.77
